sensor_id;sensor_type;location;lat;lon;timestamp;P1;durP1;ratioP1;P2;durP2;ratioP2
67049;SDS011;53955;52.442;13.284;2023-07-13T00:00:46;3.70;;;2.05;;
67049;SDS011;53955;52.442;13.284;2023-07-13T00:03:14;3.47;;;1.88;;
67049;SDS011;53955;52.442;13.284;2023-07-13T00:05:42;3.83;;;1.98;;
67049;SDS011;53955;52.442;13.284;2023-07-13T00:08:08;4.22;;;2.17;;
67049;SDS011;53955;52.442;13.284;2023-07-13T00:10:38;3.85;;;1.98;;
67049;SDS011;53955;52.442;13.284;2023-07-13T00:13:06;5.28;;;2.42;;
67049;SDS011;53955;52.442;13.284;2023-07-13T00:15:33;3.63;;;1.73;;
67049;SDS011;53955;52.442;13.284;2023-07-13T00:18:01;5.00;;;1.88;;
67049;SDS011;53955;52.442;13.284;2023-07-13T00:20:28;3.45;;;1.80;;
67049;SDS011;53955;52.442;13.284;2023-07-13T00:22:55;2.70;;;1.77;;
67049;SDS011;53955;52.442;13.284;2023-07-13T00:25:22;6.15;;;1.75;;
67049;SDS011;53955;52.442;13.284;2023-07-13T00:27:51;3.70;;;2.00;;
67049;SDS011;53955;52.442;13.284;2023-07-13T00:30:17;4.93;;;2.15;;
67049;SDS011;53955;52.442;13.284;2023-07-13T00:32:44;4.45;;;1.90;;
67049;SDS011;53955;52.442;13.284;2023-07-13T00:35:12;4.28;;;2.22;;
67049;SDS011;53955;52.442;13.284;2023-07-13T00:37:41;3.45;;;2.05;;
67049;SDS011;53955;52.442;13.284;2023-07-13T00:40:09;4.72;;;1.98;;
67049;SDS011;53955;52.442;13.284;2023-07-13T00:42:36;3.75;;;2.17;;
67049;SDS011;53955;52.442;13.284;2023-07-13T00:45:04;4.22;;;2.03;;
67049;SDS011;53955;52.442;13.284;2023-07-13T00:47:32;3.35;;;2.08;;
67049;SDS011;53955;52.442;13.284;2023-07-13T00:49:59;5.65;;;2.63;;
67049;SDS011;53955;52.442;13.284;2023-07-13T00:52:26;3.60;;;2.20;;
67049;SDS011;53955;52.442;13.284;2023-07-13T00:54:55;5.45;;;2.38;;
67049;SDS011;53955;52.442;13.284;2023-07-13T00:57:22;3.50;;;2.13;;
67049;SDS011;53955;52.442;13.284;2023-07-13T00:59:52;9.88;;;2.25;;
67049;SDS011;53955;52.442;13.284;2023-07-13T01:02:23;3.17;;;2.30;;
67049;SDS011;53955;52.442;13.284;2023-07-13T01:04:50;4.75;;;2.20;;
67049;SDS011;53955;52.442;13.284;2023-07-13T01:07:17;3.20;;;2.22;;
67049;SDS011;53955;52.442;13.284;2023-07-13T01:09:44;2.70;;;1.88;;
67049;SDS011;53955;52.442;13.284;2023-07-13T01:12:12;8.00;;;2.40;;
67049;SDS011;53955;52.442;13.284;2023-07-13T01:14:39;5.00;;;2.63;;
67049;SDS011;53955;52.442;13.284;2023-07-13T01:17:08;5.15;;;2.40;;
67049;SDS011;53955;52.442;13.284;2023-07-13T01:19:36;11.25;;;2.53;;
67049;SDS011;53955;52.442;13.284;2023-07-13T01:22:06;5.35;;;2.22;;
67049;SDS011;53955;52.442;13.284;2023-07-13T01:24:35;3.83;;;2.20;;
67049;SDS011;53955;52.442;13.284;2023-07-13T01:27:02;2.95;;;2.00;;
67049;SDS011;53955;52.442;13.284;2023-07-13T01:29:30;4.20;;;2.35;;
67049;SDS011;53955;52.442;13.284;2023-07-13T01:31:58;3.83;;;2.13;;
67049;SDS011;53955;52.442;13.284;2023-07-13T01:34:26;4.13;;;2.38;;
67049;SDS011;53955;52.442;13.284;2023-07-13T01:36:53;3.42;;;2.45;;
67049;SDS011;53955;52.442;13.284;2023-07-13T01:39:21;4.00;;;2.10;;
67049;SDS011;53955;52.442;13.284;2023-07-13T01:41:49;3.47;;;1.90;;
67049;SDS011;53955;52.442;13.284;2023-07-13T01:44:15;3.42;;;2.35;;
67049;SDS011;53955;52.442;13.284;2023-07-13T01:46:42;4.32;;;2.50;;
67049;SDS011;53955;52.442;13.284;2023-07-13T01:49:08;4.35;;;2.60;;
67049;SDS011;53955;52.442;13.284;2023-07-13T01:51:35;4.03;;;2.25;;
67049;SDS011;53955;52.442;13.284;2023-07-13T01:54:01;2.80;;;1.95;;
67049;SDS011;53955;52.442;13.284;2023-07-13T01:56:30;3.78;;;2.60;;
67049;SDS011;53955;52.442;13.284;2023-07-13T01:58:56;5.05;;;2.50;;
67049;SDS011;53955;52.442;13.284;2023-07-13T02:01:23;2.65;;;2.00;;
67049;SDS011;53955;52.442;13.284;2023-07-13T02:03:49;2.83;;;1.92;;
67049;SDS011;53955;52.442;13.284;2023-07-13T02:06:16;4.05;;;2.40;;
67049;SDS011;53955;52.442;13.284;2023-07-13T02:08:43;4.78;;;2.85;;
67049;SDS011;53955;52.442;13.284;2023-07-13T02:11:09;3.15;;;2.35;;
67049;SDS011;53955;52.442;13.284;2023-07-13T02:13:37;4.72;;;2.17;;
67049;SDS011;53955;52.442;13.284;2023-07-13T02:16:04;4.25;;;2.40;;
67049;SDS011;53955;52.442;13.284;2023-07-13T02:18:31;3.90;;;2.35;;
67049;SDS011;53955;52.442;13.284;2023-07-13T02:20:58;4.20;;;2.53;;
67049;SDS011;53955;52.442;13.284;2023-07-13T02:23:24;7.18;;;2.60;;
67049;SDS011;53955;52.442;13.284;2023-07-13T02:25:53;3.50;;;2.53;;
67049;SDS011;53955;52.442;13.284;2023-07-13T02:28:21;7.13;;;2.75;;
67049;SDS011;53955;52.442;13.284;2023-07-13T02:30:48;5.03;;;2.40;;
67049;SDS011;53955;52.442;13.284;2023-07-13T02:33:15;3.65;;;2.60;;
67049;SDS011;53955;52.442;13.284;2023-07-13T02:35:42;4.53;;;2.50;;
67049;SDS011;53955;52.442;13.284;2023-07-13T02:38:08;6.40;;;2.38;;
67049;SDS011;53955;52.442;13.284;2023-07-13T02:40:35;9.75;;;2.53;;
67049;SDS011;53955;52.442;13.284;2023-07-13T02:43:03;5.43;;;2.67;;
67049;SDS011;53955;52.442;13.284;2023-07-13T02:45:29;3.45;;;2.17;;
67049;SDS011;53955;52.442;13.284;2023-07-13T02:47:57;6.60;;;2.67;;
67049;SDS011;53955;52.442;13.284;2023-07-13T02:50:24;3.45;;;2.30;;
67049;SDS011;53955;52.442;13.284;2023-07-13T02:52:50;4.10;;;2.10;;
67049;SDS011;53955;52.442;13.284;2023-07-13T02:55:17;4.70;;;2.20;;
67049;SDS011;53955;52.442;13.284;2023-07-13T02:57:43;5.32;;;2.47;;
67049;SDS011;53955;52.442;13.284;2023-07-13T03:00:10;4.15;;;2.83;;
67049;SDS011;53955;52.442;13.284;2023-07-13T03:02:37;4.80;;;3.05;;
67049;SDS011;53955;52.442;13.284;2023-07-13T03:05:06;4.18;;;2.70;;
67049;SDS011;53955;52.442;13.284;2023-07-13T03:07:35;4.50;;;3.08;;
67049;SDS011;53955;52.442;13.284;2023-07-13T03:10:02;4.07;;;2.20;;
67049;SDS011;53955;52.442;13.284;2023-07-13T03:12:29;4.35;;;2.40;;
67049;SDS011;53955;52.442;13.284;2023-07-13T03:14:55;4.60;;;2.65;;
67049;SDS011;53955;52.442;13.284;2023-07-13T03:17:23;5.53;;;2.75;;
67049;SDS011;53955;52.442;13.284;2023-07-13T03:19:50;3.70;;;2.42;;
67049;SDS011;53955;52.442;13.284;2023-07-13T03:22:18;3.53;;;2.55;;
67049;SDS011;53955;52.442;13.284;2023-07-13T03:24:45;4.57;;;2.90;;
67049;SDS011;53955;52.442;13.284;2023-07-13T03:27:12;4.13;;;2.70;;
67049;SDS011;53955;52.442;13.284;2023-07-13T03:29:38;3.92;;;2.45;;
67049;SDS011;53955;52.442;13.284;2023-07-13T03:32:05;4.45;;;2.45;;
67049;SDS011;53955;52.442;13.284;2023-07-13T03:34:32;4.90;;;2.80;;
67049;SDS011;53955;52.442;13.284;2023-07-13T03:36:59;3.47;;;2.45;;
67049;SDS011;53955;52.442;13.284;2023-07-13T03:39:27;4.50;;;2.95;;
67049;SDS011;53955;52.442;13.284;2023-07-13T03:41:53;4.00;;;3.00;;
67049;SDS011;53955;52.442;13.284;2023-07-13T03:44:20;4.43;;;2.70;;
67049;SDS011;53955;52.442;13.284;2023-07-13T03:46:46;4.05;;;2.47;;
67049;SDS011;53955;52.442;13.284;2023-07-13T03:49:13;3.97;;;2.72;;
67049;SDS011;53955;52.442;13.284;2023-07-13T03:51:39;6.78;;;2.50;;
67049;SDS011;53955;52.442;13.284;2023-07-13T03:54:06;6.90;;;2.88;;
67049;SDS011;53955;52.442;13.284;2023-07-13T03:56:34;4.68;;;2.40;;
67049;SDS011;53955;52.442;13.284;2023-07-13T03:59:00;4.40;;;2.55;;
67049;SDS011;53955;52.442;13.284;2023-07-13T04:01:27;6.05;;;2.55;;
67049;SDS011;53955;52.442;13.284;2023-07-13T04:03:54;9.38;;;3.33;;
67049;SDS011;53955;52.442;13.284;2023-07-13T04:06:21;4.68;;;2.67;;
67049;SDS011;53955;52.442;13.284;2023-07-13T04:08:50;4.72;;;3.10;;
67049;SDS011;53955;52.442;13.284;2023-07-13T04:11:19;5.80;;;3.20;;
67049;SDS011;53955;52.442;13.284;2023-07-13T04:13:48;3.83;;;2.65;;
67049;SDS011;53955;52.442;13.284;2023-07-13T04:16:15;5.18;;;3.40;;
67049;SDS011;53955;52.442;13.284;2023-07-13T04:18:43;3.85;;;2.80;;
67049;SDS011;53955;52.442;13.284;2023-07-13T04:21:09;5.95;;;2.90;;
67049;SDS011;53955;52.442;13.284;2023-07-13T04:23:36;4.90;;;3.05;;
67049;SDS011;53955;52.442;13.284;2023-07-13T04:26:04;3.90;;;2.67;;
67049;SDS011;53955;52.442;13.284;2023-07-13T04:28:31;3.42;;;2.42;;
67049;SDS011;53955;52.442;13.284;2023-07-13T04:30:59;5.05;;;2.50;;
67049;SDS011;53955;52.442;13.284;2023-07-13T04:33:26;5.60;;;2.85;;
67049;SDS011;53955;52.442;13.284;2023-07-13T04:35:53;3.95;;;2.28;;
67049;SDS011;53955;52.442;13.284;2023-07-13T04:38:21;5.35;;;2.90;;
67049;SDS011;53955;52.442;13.284;2023-07-13T04:40:49;6.05;;;2.88;;
67049;SDS011;53955;52.442;13.284;2023-07-13T04:43:16;7.75;;;2.90;;
67049;SDS011;53955;52.442;13.284;2023-07-13T04:45:43;4.05;;;2.40;;
67049;SDS011;53955;52.442;13.284;2023-07-13T04:48:11;5.80;;;2.40;;
67049;SDS011;53955;52.442;13.284;2023-07-13T04:50:37;3.72;;;2.58;;
67049;SDS011;53955;52.442;13.284;2023-07-13T04:53:04;3.88;;;2.05;;
67049;SDS011;53955;52.442;13.284;2023-07-13T04:55:31;2.53;;;1.70;;
67049;SDS011;53955;52.442;13.284;2023-07-13T04:57:58;5.40;;;1.92;;
67049;SDS011;53955;52.442;13.284;2023-07-13T05:00:25;5.97;;;1.67;;
67049;SDS011;53955;52.442;13.284;2023-07-13T05:02:54;3.53;;;1.40;;
67049;SDS011;53955;52.442;13.284;2023-07-13T05:05:23;4.43;;;1.60;;
67049;SDS011;53955;52.442;13.284;2023-07-13T05:07:51;3.03;;;1.60;;
67049;SDS011;53955;52.442;13.284;2023-07-13T05:10:18;3.80;;;1.33;;
67049;SDS011;53955;52.442;13.284;2023-07-13T05:12:44;4.40;;;1.50;;
67049;SDS011;53955;52.442;13.284;2023-07-13T05:15:11;4.15;;;1.35;;
67049;SDS011;53955;52.442;13.284;2023-07-13T05:17:38;3.97;;;1.60;;
67049;SDS011;53955;52.442;13.284;2023-07-13T05:20:05;7.38;;;1.67;;
67049;SDS011;53955;52.442;13.284;2023-07-13T05:22:34;2.90;;;1.30;;
67049;SDS011;53955;52.442;13.284;2023-07-13T05:25:00;4.53;;;1.40;;
67049;SDS011;53955;52.442;13.284;2023-07-13T05:27:27;3.00;;;1.27;;
67049;SDS011;53955;52.442;13.284;2023-07-13T05:29:54;5.82;;;1.55;;
67049;SDS011;53955;52.442;13.284;2023-07-13T05:32:20;2.47;;;1.13;;
67049;SDS011;53955;52.442;13.284;2023-07-13T05:34:47;3.17;;;1.25;;
67049;SDS011;53955;52.442;13.284;2023-07-13T05:37:13;3.53;;;1.08;;
67049;SDS011;53955;52.442;13.284;2023-07-13T05:39:41;3.92;;;1.15;;
67049;SDS011;53955;52.442;13.284;2023-07-13T05:42:08;3.08;;;1.30;;
67049;SDS011;53955;52.442;13.284;2023-07-13T05:44:35;4.03;;;1.45;;
67049;SDS011;53955;52.442;13.284;2023-07-13T05:47:01;3.40;;;1.00;;
67049;SDS011;53955;52.442;13.284;2023-07-13T05:49:28;2.22;;;1.00;;
67049;SDS011;53955;52.442;13.284;2023-07-13T05:51:55;4.07;;;1.00;;
67049;SDS011;53955;52.442;13.284;2023-07-13T05:54:22;2.80;;;1.08;;
67049;SDS011;53955;52.442;13.284;2023-07-13T05:56:50;3.70;;;1.15;;
67049;SDS011;53955;52.442;13.284;2023-07-13T05:59:17;3.03;;;1.10;;
67049;SDS011;53955;52.442;13.284;2023-07-13T06:01:43;5.28;;;1.27;;
67049;SDS011;53955;52.442;13.284;2023-07-13T06:04:10;3.20;;;1.10;;
67049;SDS011;53955;52.442;13.284;2023-07-13T06:06:36;3.17;;;1.38;;
67049;SDS011;53955;52.442;13.284;2023-07-13T06:09:03;3.13;;;1.00;;
67049;SDS011;53955;52.442;13.284;2023-07-13T06:11:30;5.10;;;1.50;;
67049;SDS011;53955;52.442;13.284;2023-07-13T06:13:57;3.63;;;1.08;;
67049;SDS011;53955;52.442;13.284;2023-07-13T06:16:24;2.63;;;1.10;;
67049;SDS011;53955;52.442;13.284;2023-07-13T06:18:50;2.80;;;0.85;;
67049;SDS011;53955;52.442;13.284;2023-07-13T06:21:18;3.65;;;1.42;;
67049;SDS011;53955;52.442;13.284;2023-07-13T06:23:46;2.70;;;1.15;;
67049;SDS011;53955;52.442;13.284;2023-07-13T06:26:14;5.85;;;1.55;;
67049;SDS011;53955;52.442;13.284;2023-07-13T06:28:41;5.50;;;1.80;;
67049;SDS011;53955;52.442;13.284;2023-07-13T06:31:10;2.05;;;1.02;;
67049;SDS011;53955;52.442;13.284;2023-07-13T06:33:37;4.05;;;1.20;;
67049;SDS011;53955;52.442;13.284;2023-07-13T06:36:05;4.00;;;0.95;;
67049;SDS011;53955;52.442;13.284;2023-07-13T06:38:33;4.15;;;1.20;;
67049;SDS011;53955;52.442;13.284;2023-07-13T06:41:00;1.95;;;0.98;;
67049;SDS011;53955;52.442;13.284;2023-07-13T06:43:27;3.25;;;1.48;;
67049;SDS011;53955;52.442;13.284;2023-07-13T06:45:55;4.32;;;1.50;;
67049;SDS011;53955;52.442;13.284;2023-07-13T06:48:23;4.22;;;1.33;;
67049;SDS011;53955;52.442;13.284;2023-07-13T06:50:50;4.25;;;1.48;;
67049;SDS011;53955;52.442;13.284;2023-07-13T06:53:18;4.40;;;1.70;;
67049;SDS011;53955;52.442;13.284;2023-07-13T06:55:46;2.72;;;1.30;;
67049;SDS011;53955;52.442;13.284;2023-07-13T06:58:13;2.63;;;1.20;;
67049;SDS011;53955;52.442;13.284;2023-07-13T07:00:40;4.15;;;1.38;;
67049;SDS011;53955;52.442;13.284;2023-07-13T07:03:07;3.13;;;1.48;;
67049;SDS011;53955;52.442;13.284;2023-07-13T07:05:35;4.45;;;1.50;;
67049;SDS011;53955;52.442;13.284;2023-07-13T07:08:01;4.70;;;1.48;;
67049;SDS011;53955;52.442;13.284;2023-07-13T07:10:29;3.47;;;1.20;;
67049;SDS011;53955;52.442;13.284;2023-07-13T07:12:56;3.65;;;1.27;;
67049;SDS011;53955;52.442;13.284;2023-07-13T07:15:23;3.70;;;1.27;;
67049;SDS011;53955;52.442;13.284;2023-07-13T07:17:49;2.67;;;1.10;;
67049;SDS011;53955;52.442;13.284;2023-07-13T07:20:16;4.07;;;1.35;;
67049;SDS011;53955;52.442;13.284;2023-07-13T07:22:44;2.45;;;1.20;;
67049;SDS011;53955;52.442;13.284;2023-07-13T07:25:11;2.42;;;1.20;;
67049;SDS011;53955;52.442;13.284;2023-07-13T07:27:38;4.60;;;1.08;;
67049;SDS011;53955;52.442;13.284;2023-07-13T07:30:05;4.57;;;1.33;;
67049;SDS011;53955;52.442;13.284;2023-07-13T07:32:32;3.22;;;1.58;;
67049;SDS011;53955;52.442;13.284;2023-07-13T07:34:59;4.82;;;1.17;;
67049;SDS011;53955;52.442;13.284;2023-07-13T07:37:25;3.38;;;1.30;;
67049;SDS011;53955;52.442;13.284;2023-07-13T07:39:53;3.42;;;1.10;;
67049;SDS011;53955;52.442;13.284;2023-07-13T07:42:20;2.75;;;1.00;;
67049;SDS011;53955;52.442;13.284;2023-07-13T07:44:46;3.50;;;1.00;;
67049;SDS011;53955;52.442;13.284;2023-07-13T07:47:13;2.60;;;1.20;;
67049;SDS011;53955;52.442;13.284;2023-07-13T07:49:40;2.10;;;1.10;;
67049;SDS011;53955;52.442;13.284;2023-07-13T07:52:07;3.65;;;1.42;;
67049;SDS011;53955;52.442;13.284;2023-07-13T07:54:33;4.63;;;1.20;;
67049;SDS011;53955;52.442;13.284;2023-07-13T07:57:01;4.72;;;1.17;;
67049;SDS011;53955;52.442;13.284;2023-07-13T07:59:28;1.73;;;1.00;;
67049;SDS011;53955;52.442;13.284;2023-07-13T08:01:55;2.83;;;1.25;;
67049;SDS011;53955;52.442;13.284;2023-07-13T08:04:21;2.35;;;1.10;;
67049;SDS011;53955;52.442;13.284;2023-07-13T08:06:48;2.88;;;1.33;;
67049;SDS011;53955;52.442;13.284;2023-07-13T08:09:15;3.05;;;1.25;;
67049;SDS011;53955;52.442;13.284;2023-07-13T08:11:41;3.50;;;1.10;;
67049;SDS011;53955;52.442;13.284;2023-07-13T08:14:09;1.80;;;0.88;;
67049;SDS011;53955;52.442;13.284;2023-07-13T08:16:36;1.73;;;0.80;;
67049;SDS011;53955;52.442;13.284;2023-07-13T08:19:03;2.83;;;1.10;;
67049;SDS011;53955;52.442;13.284;2023-07-13T08:21:31;4.90;;;1.30;;
67049;SDS011;53955;52.442;13.284;2023-07-13T08:23:57;2.80;;;0.90;;
67049;SDS011;53955;52.442;13.284;2023-07-13T08:26:24;2.95;;;1.17;;
67049;SDS011;53955;52.442;13.284;2023-07-13T08:28:50;3.08;;;1.00;;
67049;SDS011;53955;52.442;13.284;2023-07-13T08:31:18;1.55;;;1.05;;
67049;SDS011;53955;52.442;13.284;2023-07-13T08:33:45;2.30;;;0.85;;
67049;SDS011;53955;52.442;13.284;2023-07-13T08:36:12;3.85;;;1.17;;
67049;SDS011;53955;52.442;13.284;2023-07-13T08:38:38;5.95;;;1.70;;
67049;SDS011;53955;52.442;13.284;2023-07-13T08:41:09;2.60;;;1.20;;
67049;SDS011;53955;52.442;13.284;2023-07-13T08:43:38;2.20;;;1.10;;
67049;SDS011;53955;52.442;13.284;2023-07-13T08:46:07;8.80;;;1.50;;
67049;SDS011;53955;52.442;13.284;2023-07-13T08:48:39;2.00;;;0.80;;
67049;SDS011;53955;52.442;13.284;2023-07-13T08:51:12;4.28;;;1.10;;
67049;SDS011;53955;52.442;13.284;2023-07-13T08:53:50;3.40;;;1.30;;
67049;SDS011;53955;52.442;13.284;2023-07-13T08:56:24;3.25;;;1.38;;
67049;SDS011;53955;52.442;13.284;2023-07-13T08:58:55;2.40;;;1.25;;
67049;SDS011;53955;52.442;13.284;2023-07-13T09:01:24;4.05;;;1.20;;
67049;SDS011;53955;52.442;13.284;2023-07-13T09:03:59;5.30;;;1.63;;
67049;SDS011;53955;52.442;13.284;2023-07-13T09:06:34;1.85;;;0.93;;
67049;SDS011;53955;52.442;13.284;2023-07-13T09:09:10;3.53;;;1.10;;
67049;SDS011;53955;52.442;13.284;2023-07-13T09:11:47;4.55;;;1.30;;
67049;SDS011;53955;52.442;13.284;2023-07-13T09:14:35;2.35;;;1.00;;
67049;SDS011;53955;52.442;13.284;2023-07-13T09:17:10;3.30;;;1.00;;
67049;SDS011;53955;52.442;13.284;2023-07-13T09:19:41;4.90;;;1.20;;
67049;SDS011;53955;52.442;13.284;2023-07-13T09:22:13;2.40;;;1.20;;
67049;SDS011;53955;52.442;13.284;2023-07-13T09:24:47;2.55;;;1.20;;
67049;SDS011;53955;52.442;13.284;2023-07-13T09:27:23;2.05;;;1.00;;
67049;SDS011;53955;52.442;13.284;2023-07-13T09:29:57;2.20;;;1.10;;
67049;SDS011;53955;52.442;13.284;2023-07-13T09:32:30;2.42;;;1.27;;
67049;SDS011;53955;52.442;13.284;2023-07-13T09:34:58;5.65;;;1.40;;
67049;SDS011;53955;52.442;13.284;2023-07-13T09:37:29;4.70;;;1.60;;
67049;SDS011;53955;52.442;13.284;2023-07-13T09:39:58;3.60;;;1.92;;
67049;SDS011;53955;52.442;13.284;2023-07-13T09:42:29;3.95;;;1.92;;
67049;SDS011;53955;52.442;13.284;2023-07-13T09:44:58;6.07;;;2.10;;
67049;SDS011;53955;52.442;13.284;2023-07-13T09:47:28;3.05;;;1.73;;
67049;SDS011;53955;52.442;13.284;2023-07-13T09:49:56;4.72;;;1.67;;
67049;SDS011;53955;52.442;13.284;2023-07-13T09:52:25;5.82;;;1.90;;
67049;SDS011;53955;52.442;13.284;2023-07-13T09:54:53;4.45;;;2.10;;
67049;SDS011;53955;52.442;13.284;2023-07-13T09:57:24;3.80;;;2.38;;
67049;SDS011;53955;52.442;13.284;2023-07-13T09:59:54;5.93;;;2.50;;
67049;SDS011;53955;52.442;13.284;2023-07-13T10:02:24;3.70;;;1.98;;
67049;SDS011;53955;52.442;13.284;2023-07-13T10:04:56;3.90;;;1.90;;
67049;SDS011;53955;52.442;13.284;2023-07-13T10:07:25;3.13;;;2.13;;
67049;SDS011;53955;52.442;13.284;2023-07-13T10:09:52;3.08;;;1.80;;
67049;SDS011;53955;52.442;13.284;2023-07-13T10:12:20;4.05;;;1.67;;
67049;SDS011;53955;52.442;13.284;2023-07-13T10:14:48;5.68;;;1.95;;
67049;SDS011;53955;52.442;13.284;2023-07-13T10:17:16;2.85;;;1.70;;
67049;SDS011;53955;52.442;13.284;2023-07-13T10:19:51;3.00;;;2.00;;
67049;SDS011;53955;52.442;13.284;2023-07-13T10:22:21;3.97;;;2.00;;
67049;SDS011;53955;52.442;13.284;2023-07-13T10:24:54;3.05;;;1.98;;
67049;SDS011;53955;52.442;13.284;2023-07-13T10:27:23;3.72;;;1.95;;
67049;SDS011;53955;52.442;13.284;2023-07-13T10:29:58;6.15;;;2.13;;
67049;SDS011;53955;52.442;13.284;2023-07-13T10:32:27;3.95;;;2.08;;
67049;SDS011;53955;52.442;13.284;2023-07-13T10:34:54;4.85;;;1.85;;
67049;SDS011;53955;52.442;13.284;2023-07-13T10:37:24;4.38;;;1.58;;
67049;SDS011;53955;52.442;13.284;2023-07-13T10:39:55;3.28;;;1.80;;
67049;SDS011;53955;52.442;13.284;2023-07-13T10:42:26;4.22;;;2.00;;
67049;SDS011;53955;52.442;13.284;2023-07-13T10:44:55;3.00;;;1.95;;
67049;SDS011;53955;52.442;13.284;2023-07-13T10:47:21;2.92;;;1.90;;
67049;SDS011;53955;52.442;13.284;2023-07-13T10:49:49;4.13;;;1.90;;
67049;SDS011;53955;52.442;13.284;2023-07-13T10:52:40;3.85;;;2.10;;
67049;SDS011;53955;52.442;13.284;2023-07-13T10:58:02;4.60;;;2.20;;
67049;SDS011;53955;52.442;13.284;2023-07-13T11:00:42;3.33;;;1.77;;
67049;SDS011;53955;52.442;13.284;2023-07-13T11:03:13;2.72;;;1.60;;
67049;SDS011;53955;52.442;13.284;2023-07-13T11:05:43;4.47;;;1.77;;
67049;SDS011;53955;52.442;13.284;2023-07-13T11:08:15;3.13;;;1.95;;
67049;SDS011;53955;52.442;13.284;2023-07-13T11:10:48;3.65;;;1.95;;
67049;SDS011;53955;52.442;13.284;2023-07-13T11:13:36;3.42;;;1.70;;
67049;SDS011;53955;52.442;13.284;2023-07-13T11:16:26;3.40;;;1.48;;
67049;SDS011;53955;52.442;13.284;2023-07-13T11:22:09;6.55;;;2.05;;
67049;SDS011;53955;52.442;13.284;2023-07-13T11:24:48;3.28;;;1.98;;
67049;SDS011;53955;52.442;13.284;2023-07-13T11:27:27;4.10;;;2.08;;
67049;SDS011;53955;52.442;13.284;2023-07-13T11:32:50;2.83;;;2.00;;
67049;SDS011;53955;52.442;13.284;2023-07-13T11:35:30;5.20;;;2.05;;
67049;SDS011;53955;52.442;13.284;2023-07-13T11:37:59;5.13;;;2.13;;
67049;SDS011;53955;52.442;13.284;2023-07-13T11:40:26;3.95;;;2.30;;
67049;SDS011;53955;52.442;13.284;2023-07-13T11:43:00;4.82;;;1.60;;
67049;SDS011;53955;52.442;13.284;2023-07-13T11:45:27;5.63;;;2.03;;
67049;SDS011;53955;52.442;13.284;2023-07-13T11:47:54;3.45;;;1.73;;
67049;SDS011;53955;52.442;13.284;2023-07-13T11:50:23;5.63;;;1.95;;
67049;SDS011;53955;52.442;13.284;2023-07-13T11:52:50;7.57;;;1.80;;
67049;SDS011;53955;52.442;13.284;2023-07-13T11:55:21;4.03;;;1.65;;
67049;SDS011;53955;52.442;13.284;2023-07-13T11:57:50;2.88;;;1.45;;
67049;SDS011;53955;52.442;13.284;2023-07-13T12:00:22;7.35;;;1.70;;
67049;SDS011;53955;52.442;13.284;2023-07-13T12:02:53;4.53;;;1.60;;
67049;SDS011;53955;52.442;13.284;2023-07-13T12:05:22;2.40;;;1.60;;
67049;SDS011;53955;52.442;13.284;2023-07-13T12:07:50;3.53;;;1.48;;
67049;SDS011;53955;52.442;13.284;2023-07-13T12:10:20;4.18;;;1.60;;
67049;SDS011;53955;52.442;13.284;2023-07-13T12:12:51;3.58;;;1.40;;
67049;SDS011;53955;52.442;13.284;2023-07-13T12:15:19;3.30;;;1.75;;
67049;SDS011;53955;52.442;13.284;2023-07-13T12:17:48;3.10;;;1.50;;
67049;SDS011;53955;52.442;13.284;2023-07-13T12:20:20;6.32;;;1.58;;
67049;SDS011;53955;52.442;13.284;2023-07-13T12:22:49;4.60;;;1.90;;
67049;SDS011;53955;52.442;13.284;2023-07-13T12:25:16;6.55;;;1.50;;
67049;SDS011;53955;52.442;13.284;2023-07-13T12:27:46;4.57;;;1.52;;
67049;SDS011;53955;52.442;13.284;2023-07-13T12:30:25;3.40;;;1.67;;
67049;SDS011;53955;52.442;13.284;2023-07-13T12:32:56;5.68;;;1.75;;
67049;SDS011;53955;52.442;13.284;2023-07-13T12:35:24;4.97;;;1.70;;
67049;SDS011;53955;52.442;13.284;2023-07-13T12:37:52;3.85;;;1.80;;
67049;SDS011;53955;52.442;13.284;2023-07-13T12:40:20;2.85;;;1.55;;
67049;SDS011;53955;52.442;13.284;2023-07-13T12:42:48;4.63;;;1.75;;
67049;SDS011;53955;52.442;13.284;2023-07-13T12:45:18;4.05;;;1.75;;
67049;SDS011;53955;52.442;13.284;2023-07-13T12:47:49;3.53;;;1.42;;
67049;SDS011;53955;52.442;13.284;2023-07-13T12:50:17;5.75;;;1.90;;
67049;SDS011;53955;52.442;13.284;2023-07-13T12:52:50;3.30;;;1.48;;
67049;SDS011;53955;52.442;13.284;2023-07-13T12:55:18;2.42;;;1.40;;
67049;SDS011;53955;52.442;13.284;2023-07-13T12:57:48;3.67;;;1.30;;
67049;SDS011;53955;52.442;13.284;2023-07-13T13:00:23;3.83;;;1.48;;
67049;SDS011;53955;52.442;13.284;2023-07-13T13:02:55;3.50;;;1.38;;
67049;SDS011;53955;52.442;13.284;2023-07-13T13:05:25;6.50;;;1.75;;
67049;SDS011;53955;52.442;13.284;2023-07-13T13:07:52;4.40;;;1.85;;
67049;SDS011;53955;52.442;13.284;2023-07-13T13:10:18;3.22;;;1.38;;
67049;SDS011;53955;52.442;13.284;2023-07-13T13:12:46;5.18;;;1.35;;
67049;SDS011;53955;52.442;13.284;2023-07-13T13:15:13;6.13;;;1.67;;
67049;SDS011;53955;52.442;13.284;2023-07-13T13:17:41;2.97;;;1.35;;
67049;SDS011;53955;52.442;13.284;2023-07-13T13:20:15;3.33;;;1.30;;
67049;SDS011;53955;52.442;13.284;2023-07-13T13:22:43;4.22;;;1.40;;
67049;SDS011;53955;52.442;13.284;2023-07-13T13:25:09;6.10;;;1.52;;
67049;SDS011;53955;52.442;13.284;2023-07-13T13:27:36;2.10;;;1.23;;
67049;SDS011;53955;52.442;13.284;2023-07-13T13:30:08;5.28;;;1.35;;
67049;SDS011;53955;52.442;13.284;2023-07-13T13:32:37;3.95;;;1.10;;
67049;SDS011;53955;52.442;13.284;2023-07-13T13:35:04;4.85;;;1.40;;
67049;SDS011;53955;52.442;13.284;2023-07-13T13:37:33;3.35;;;1.30;;
67049;SDS011;53955;52.442;13.284;2023-07-13T13:40:00;2.40;;;1.10;;
67049;SDS011;53955;52.442;13.284;2023-07-13T13:42:27;4.13;;;1.10;;
67049;SDS011;53955;52.442;13.284;2023-07-13T13:44:53;2.38;;;1.30;;
67049;SDS011;53955;52.442;13.284;2023-07-13T13:47:26;3.20;;;1.38;;
67049;SDS011;53955;52.442;13.284;2023-07-13T13:49:56;4.60;;;1.48;;
67049;SDS011;53955;52.442;13.284;2023-07-13T13:52:23;2.40;;;1.17;;
67049;SDS011;53955;52.442;13.284;2023-07-13T13:54:51;3.28;;;1.17;;
67049;SDS011;53955;52.442;13.284;2023-07-13T13:57:21;7.00;;;1.55;;
67049;SDS011;53955;52.442;13.284;2023-07-13T13:59:49;3.80;;;1.27;;
67049;SDS011;53955;52.442;13.284;2023-07-13T14:02:20;2.70;;;1.02;;
67049;SDS011;53955;52.442;13.284;2023-07-13T14:04:50;3.58;;;1.08;;
67049;SDS011;53955;52.442;13.284;2023-07-13T14:07:20;5.05;;;1.25;;
67049;SDS011;53955;52.442;13.284;2023-07-13T14:09:47;2.58;;;1.00;;
67049;SDS011;53955;52.442;13.284;2023-07-13T14:12:14;3.70;;;1.20;;
67049;SDS011;53955;52.442;13.284;2023-07-13T14:14:41;1.50;;;0.82;;
67049;SDS011;53955;52.442;13.284;2023-07-13T14:17:11;3.95;;;0.93;;
67049;SDS011;53955;52.442;13.284;2023-07-13T14:19:46;3.33;;;0.80;;
67049;SDS011;53955;52.442;13.284;2023-07-13T14:22:15;2.25;;;0.70;;
67049;SDS011;53955;52.442;13.284;2023-07-13T14:24:42;2.40;;;1.00;;
67049;SDS011;53955;52.442;13.284;2023-07-13T14:27:09;5.22;;;1.10;;
67049;SDS011;53955;52.442;13.284;2023-07-13T14:29:38;4.07;;;1.27;;
67049;SDS011;53955;52.442;13.284;2023-07-13T14:32:08;2.30;;;1.05;;
67049;SDS011;53955;52.442;13.284;2023-07-13T14:34:37;2.35;;;0.90;;
67049;SDS011;53955;52.442;13.284;2023-07-13T14:37:03;2.15;;;0.90;;
67049;SDS011;53955;52.442;13.284;2023-07-13T14:39:31;4.05;;;1.00;;
67049;SDS011;53955;52.442;13.284;2023-07-13T14:41:58;2.20;;;0.73;;
67049;SDS011;53955;52.442;13.284;2023-07-13T14:44:25;4.80;;;1.40;;
67049;SDS011;53955;52.442;13.284;2023-07-13T14:47:06;2.45;;;1.00;;
67049;SDS011;53955;52.442;13.284;2023-07-13T14:49:34;2.38;;;0.90;;